sensor_id;sensor_type;location;lat;lon;timestamp;pressure;altitude;pressure_sealevel;temperature;humidity
81125;BME280;72192;52.114;5.424;2023-12-29T00:02:07;100774.56;;;9.74;100.00
81125;BME280;72192;52.114;5.424;2023-12-29T00:04:49;100762.06;;;9.73;100.00
81125;BME280;72192;52.114;5.424;2023-12-29T00:07:28;100755.69;;;9.74;100.00
81125;BME280;72192;52.114;5.424;2023-12-29T00:10:08;100765.38;;;9.85;100.00
81125;BME280;72192;52.114;5.424;2023-12-29T00:12:48;100761.50;;;9.87;100.00
81125;BME280;72192;52.114;5.424;2023-12-29T00:15:28;100757.56;;;9.73;100.00
81125;BME280;72192;52.114;5.424;2023-12-29T00:18:08;100760.72;;;9.43;100.00
81125;BME280;72192;52.114;5.424;2023-12-29T00:20:49;100767.63;;;9.19;100.00
81125;BME280;72192;52.114;5.424;2023-12-29T00:23:29;100755.69;;;8.96;100.00
81125;BME280;72192;52.114;5.424;2023-12-29T00:26:09;100759.75;;;8.82;100.00
81125;BME280;72192;52.114;5.424;2023-12-29T00:28:49;100767.63;;;8.76;100.00
81125;BME280;72192;52.114;5.424;2023-12-29T00:31:29;100747.38;;;8.72;100.00
81125;BME280;72192;52.114;5.424;2023-12-29T00:34:09;100751.59;;;8.74;100.00
81125;BME280;72192;52.114;5.424;2023-12-29T00:36:49;100746.78;;;8.78;100.00
81125;BME280;72192;52.114;5.424;2023-12-29T00:39:30;100739.63;;;8.86;100.00
81125;BME280;72192;52.114;5.424;2023-12-29T00:42:17;100745.09;;;9.03;100.00
81125;BME280;72192;52.114;5.424;2023-12-29T00:44:57;100717.25;;;9.12;100.00
81125;BME280;72192;52.114;5.424;2023-12-29T00:47:37;100714.44;;;9.22;100.00
81125;BME280;72192;52.114;5.424;2023-12-29T00:50:17;100713.34;;;9.32;100.00
81125;BME280;72192;52.114;5.424;2023-12-29T00:52:57;100705.47;;;9.39;100.00
81125;BME280;72192;52.114;5.424;2023-12-29T00:55:36;100706.38;;;9.47;100.00
81125;BME280;72192;52.114;5.424;2023-12-29T00:58:16;100713.94;;;9.52;100.00
81125;BME280;72192;52.114;5.424;2023-12-29T01:00:56;100723.59;;;9.55;100.00
81125;BME280;72192;52.114;5.424;2023-12-29T01:03:36;100706.41;;;9.56;100.00
81125;BME280;72192;52.114;5.424;2023-12-29T01:06:16;100727.47;;;9.60;100.00
81125;BME280;72192;52.114;5.424;2023-12-29T01:08:56;100708.78;;;9.59;100.00
81125;BME280;72192;52.114;5.424;2023-12-29T01:11:36;100715.22;;;9.66;100.00
81125;BME280;72192;52.114;5.424;2023-12-29T01:14:16;100696.81;;;9.61;100.00
81125;BME280;72192;52.114;5.424;2023-12-29T01:16:56;100722.28;;;9.67;100.00
81125;BME280;72192;52.114;5.424;2023-12-29T01:19:31;100702.75;;;9.65;100.00
81125;BME280;72192;52.114;5.424;2023-12-29T01:22:12;100698.88;;;9.67;100.00
81125;BME280;72192;52.114;5.424;2023-12-29T01:24:55;100724.31;;;9.65;100.00
81125;BME280;72192;52.114;5.424;2023-12-29T01:27:35;100705.56;;;9.63;100.00
81125;BME280;72192;52.114;5.424;2023-12-29T01:30:15;100714.38;;;9.65;100.00
81125;BME280;72192;52.114;5.424;2023-12-29T01:32:54;100717.25;;;9.64;100.00
81125;BME280;72192;52.114;5.424;2023-12-29T01:35:35;100702.25;;;9.69;100.00
81125;BME280;72192;52.114;5.424;2023-12-29T01:38:18;100705.97;;;9.68;100.00
81125;BME280;72192;52.114;5.424;2023-12-29T01:40:58;100704.78;;;9.71;100.00
81125;BME280;72192;52.114;5.424;2023-12-29T01:46:40;100696.72;;;9.79;100.00
81125;BME280;72192;52.114;5.424;2023-12-29T01:49:21;100702.13;;;9.79;100.00
81125;BME280;72192;52.114;5.424;2023-12-29T01:52:02;100696.06;;;9.77;100.00
81125;BME280;72192;52.114;5.424;2023-12-29T01:54:43;100697.91;;;9.76;100.00
81125;BME280;72192;52.114;5.424;2023-12-29T01:57:25;100700.09;;;9.81;100.00
81125;BME280;72192;52.114;5.424;2023-12-29T02:00:08;100726.75;;;9.84;100.00
81125;BME280;72192;52.114;5.424;2023-12-29T02:02:50;100700.66;;;9.85;100.00
81125;BME280;72192;52.114;5.424;2023-12-29T02:05:30;100707.03;;;9.84;100.00
81125;BME280;72192;52.114;5.424;2023-12-29T02:08:13;100704.50;;;9.82;100.00
81125;BME280;72192;52.114;5.424;2023-12-29T02:10:55;100708.88;;;9.83;100.00
81125;BME280;72192;52.114;5.424;2023-12-29T02:13:35;100711.44;;;9.85;100.00
81125;BME280;72192;52.114;5.424;2023-12-29T02:16:58;100717.97;;;9.82;100.00
81125;BME280;72192;52.114;5.424;2023-12-29T02:19:55;100724.53;;;9.80;100.00
81125;BME280;72192;52.114;5.424;2023-12-29T02:22:35;100721.00;;;9.79;100.00
81125;BME280;72192;52.114;5.424;2023-12-29T02:25:16;100727.22;;;9.80;100.00
81125;BME280;72192;52.114;5.424;2023-12-29T02:31:08;100719.16;;;9.80;100.00
81125;BME280;72192;52.114;5.424;2023-12-29T02:33:53;100724.03;;;9.76;100.00
81125;BME280;72192;52.114;5.424;2023-12-29T02:36:35;100720.97;;;9.71;100.00
81125;BME280;72192;52.114;5.424;2023-12-29T02:39:21;100719.59;;;9.67;100.00
81125;BME280;72192;52.114;5.424;2023-12-29T02:42:02;100716.69;;;9.60;100.00
81125;BME280;72192;52.114;5.424;2023-12-29T02:44:43;100711.31;;;9.60;100.00
81125;BME280;72192;52.114;5.424;2023-12-29T02:47:23;100729.00;;;9.63;100.00
81125;BME280;72192;52.114;5.424;2023-12-29T02:50:03;100711.63;;;9.57;100.00
81125;BME280;72192;52.114;5.424;2023-12-29T02:52:43;100727.97;;;9.30;100.00
81125;BME280;72192;52.114;5.424;2023-12-29T02:55:23;100732.72;;;9.10;100.00
81125;BME280;72192;52.114;5.424;2023-12-29T02:58:03;100737.84;;;8.95;100.00
81125;BME280;72192;52.114;5.424;2023-12-29T03:00:43;100730.53;;;8.87;100.00
81125;BME280;72192;52.114;5.424;2023-12-29T03:03:23;100735.53;;;8.82;100.00
81125;BME280;72192;52.114;5.424;2023-12-29T03:06:03;100729.44;;;8.80;100.00
81125;BME280;72192;52.114;5.424;2023-12-29T03:08:43;100741.38;;;8.78;100.00
81125;BME280;72192;52.114;5.424;2023-12-29T03:11:24;100729.78;;;8.77;100.00
81125;BME280;72192;52.114;5.424;2023-12-29T03:14:04;100725.53;;;8.75;100.00
81125;BME280;72192;52.114;5.424;2023-12-29T03:16:44;100728.69;;;8.70;100.00
81125;BME280;72192;52.114;5.424;2023-12-29T03:19:24;100734.06;;;8.70;100.00
81125;BME280;72192;52.114;5.424;2023-12-29T03:22:05;100734.22;;;8.69;100.00
81125;BME280;72192;52.114;5.424;2023-12-29T03:24:45;100743.59;;;8.65;100.00
81125;BME280;72192;52.114;5.424;2023-12-29T03:27:29;100735.16;;;8.59;100.00
81125;BME280;72192;52.114;5.424;2023-12-29T03:30:09;100732.31;;;8.61;100.00
81125;BME280;72192;52.114;5.424;2023-12-29T03:32:49;100712.16;;;8.65;100.00
81125;BME280;72192;52.114;5.424;2023-12-29T03:35:30;100729.69;;;8.69;100.00
81125;BME280;72192;52.114;5.424;2023-12-29T03:38:10;100722.06;;;8.65;100.00
81125;BME280;72192;52.114;5.424;2023-12-29T03:40:50;100721.38;;;8.62;100.00
81125;BME280;72192;52.114;5.424;2023-12-29T03:43:32;100725.06;;;8.61;100.00
81125;BME280;72192;52.114;5.424;2023-12-29T03:46:17;100721.22;;;8.64;100.00
81125;BME280;72192;52.114;5.424;2023-12-29T03:48:58;100728.16;;;8.67;100.00
81125;BME280;72192;52.114;5.424;2023-12-29T03:51:38;100726.84;;;8.71;100.00
81125;BME280;72192;52.114;5.424;2023-12-29T03:54:18;100718.31;;;8.75;100.00
81125;BME280;72192;52.114;5.424;2023-12-29T03:56:59;100719.28;;;8.74;100.00
81125;BME280;72192;52.114;5.424;2023-12-29T03:59:39;100711.44;;;8.81;100.00
81125;BME280;72192;52.114;5.424;2023-12-29T04:02:19;100709.16;;;8.86;100.00
81125;BME280;72192;52.114;5.424;2023-12-29T04:04:59;100705.63;;;8.85;100.00
81125;BME280;72192;52.114;5.424;2023-12-29T04:07:40;100702.53;;;8.80;100.00
81125;BME280;72192;52.114;5.424;2023-12-29T04:10:19;100708.53;;;8.74;100.00
81125;BME280;72192;52.114;5.424;2023-12-29T04:12:59;100692.84;;;8.70;100.00
81125;BME280;72192;52.114;5.424;2023-12-29T04:15:39;100688.47;;;8.69;100.00
81125;BME280;72192;52.114;5.424;2023-12-29T04:18:21;100678.88;;;8.66;100.00
81125;BME280;72192;52.114;5.424;2023-12-29T04:21:02;100705.47;;;8.69;100.00
81125;BME280;72192;52.114;5.424;2023-12-29T04:23:42;100701.16;;;8.76;100.00
81125;BME280;72192;52.114;5.424;2023-12-29T04:26:22;100692.59;;;8.81;100.00
81125;BME280;72192;52.114;5.424;2023-12-29T04:29:02;100693.84;;;8.86;100.00
81125;BME280;72192;52.114;5.424;2023-12-29T04:31:42;100705.28;;;8.88;100.00
81125;BME280;72192;52.114;5.424;2023-12-29T04:34:22;100695.69;;;8.86;100.00
81125;BME280;72192;52.114;5.424;2023-12-29T04:37:02;100683.91;;;8.87;100.00
81125;BME280;72192;52.114;5.424;2023-12-29T04:39:42;100697.56;;;8.94;100.00
81125;BME280;72192;52.114;5.424;2023-12-29T04:42:22;100712.72;;;8.95;100.00
81125;BME280;72192;52.114;5.424;2023-12-29T04:45:02;100698.81;;;8.99;100.00
81125;BME280;72192;52.114;5.424;2023-12-29T04:47:43;100709.41;;;9.01;100.00
81125;BME280;72192;52.114;5.424;2023-12-29T04:50:23;100713.44;;;8.97;100.00
81125;BME280;72192;52.114;5.424;2023-12-29T04:53:03;100709.91;;;8.96;100.00
81125;BME280;72192;52.114;5.424;2023-12-29T04:55:43;100695.97;;;9.01;100.00
81125;BME280;72192;52.114;5.424;2023-12-29T04:58:23;100695.97;;;9.01;100.00
81125;BME280;72192;52.114;5.424;2023-12-29T05:01:03;100694.50;;;9.06;100.00
81125;BME280;72192;52.114;5.424;2023-12-29T05:03:43;100685.75;;;9.12;100.00
81125;BME280;72192;52.114;5.424;2023-12-29T05:06:23;100682.38;;;9.10;100.00
81125;BME280;72192;52.114;5.424;2023-12-29T05:09:02;100685.94;;;9.11;100.00
81125;BME280;72192;52.114;5.424;2023-12-29T05:11:44;100687.25;;;9.07;100.00
81125;BME280;72192;52.114;5.424;2023-12-29T05:14:24;100675.47;;;9.08;100.00
81125;BME280;72192;52.114;5.424;2023-12-29T05:17:06;100691.63;;;9.08;100.00
81125;BME280;72192;52.114;5.424;2023-12-29T05:19:46;100686.94;;;9.10;100.00
81125;BME280;72192;52.114;5.424;2023-12-29T05:22:26;100683.41;;;9.09;100.00
81125;BME280;72192;52.114;5.424;2023-12-29T05:25:06;100699.22;;;9.12;100.00
81125;BME280;72192;52.114;5.424;2023-12-29T05:27:46;100700.06;;;9.13;100.00
81125;BME280;72192;52.114;5.424;2023-12-29T05:30:29;100693.69;;;9.14;100.00
81125;BME280;72192;52.114;5.424;2023-12-29T05:33:10;100695.41;;;9.15;100.00
81125;BME280;72192;52.114;5.424;2023-12-29T05:35:50;100696.06;;;9.17;100.00
81125;BME280;72192;52.114;5.424;2023-12-29T05:38:32;100700.13;;;9.21;100.00
81125;BME280;72192;52.114;5.424;2023-12-29T05:41:13;100689.00;;;9.16;100.00
81125;BME280;72192;52.114;5.424;2023-12-29T05:43:53;100694.91;;;9.19;100.00
81125;BME280;72192;52.114;5.424;2023-12-29T05:46:33;100688.84;;;9.17;100.00
81125;BME280;72192;52.114;5.424;2023-12-29T05:49:14;100686.16;;;9.17;100.00
81125;BME280;72192;52.114;5.424;2023-12-29T05:51:54;100682.78;;;9.15;100.00
81125;BME280;72192;52.114;5.424;2023-12-29T05:54:35;100690.84;;;9.15;100.00
81125;BME280;72192;52.114;5.424;2023-12-29T05:57:15;100685.47;;;9.15;100.00
81125;BME280;72192;52.114;5.424;2023-12-29T05:59:55;100686.31;;;9.16;100.00
81125;BME280;72192;52.114;5.424;2023-12-29T06:02:35;100688.00;;;9.17;100.00
81125;BME280;72192;52.114;5.424;2023-12-29T06:05:15;100682.63;;;9.17;100.00
81125;BME280;72192;52.114;5.424;2023-12-29T06:07:57;100680.28;;;9.22;100.00
81125;BME280;72192;52.114;5.424;2023-12-29T06:10:37;100678.97;;;9.26;100.00
81125;BME280;72192;52.114;5.424;2023-12-29T06:13:17;100682.16;;;9.30;100.00
81125;BME280;72192;52.114;5.424;2023-12-29T06:15:57;100675.25;;;9.27;100.00
81125;BME280;72192;52.114;5.424;2023-12-29T06:18:36;100691.09;;;9.30;100.00
81125;BME280;72192;52.114;5.424;2023-12-29T06:21:16;100694.84;;;9.37;100.00
81125;BME280;72192;52.114;5.424;2023-12-29T06:23:56;100682.22;;;9.38;100.00
81125;BME280;72192;52.114;5.424;2023-12-29T06:26:35;100679.19;;;9.41;100.00
81125;BME280;72192;52.114;5.424;2023-12-29T06:29:20;100682.28;;;9.46;100.00
81125;BME280;72192;52.114;5.424;2023-12-29T06:32:00;100689.84;;;9.51;100.00
81125;BME280;72192;52.114;5.424;2023-12-29T06:34:40;100703.88;;;9.54;100.00
81125;BME280;72192;52.114;5.424;2023-12-29T06:37:20;100698.31;;;9.56;100.00
81125;BME280;72192;52.114;5.424;2023-12-29T06:40:00;100698.31;;;9.56;100.00
81125;BME280;72192;52.114;5.424;2023-12-29T06:42:40;100694.63;;;9.57;100.00
81125;BME280;72192;52.114;5.424;2023-12-29T06:45:20;100697.31;;;9.57;100.00
81125;BME280;72192;52.114;5.424;2023-12-29T06:48:00;100691.09;;;9.56;100.00
81125;BME280;72192;52.114;5.424;2023-12-29T06:50:40;100681.16;;;9.57;100.00
81125;BME280;72192;52.114;5.424;2023-12-29T06:53:20;100676.75;;;9.56;100.00
81125;BME280;72192;52.114;5.424;2023-12-29T06:56:00;100686.38;;;9.58;100.00
81125;BME280;72192;52.114;5.424;2023-12-29T06:58:40;100692.59;;;9.59;100.00
81125;BME280;72192;52.114;5.424;2023-12-29T07:01:19;100676.44;;;9.59;100.00
81125;BME280;72192;52.114;5.424;2023-12-29T07:03:59;100677.44;;;9.58;100.00
81125;BME280;72192;52.114;5.424;2023-12-29T07:06:39;100678.97;;;9.60;100.00
81125;BME280;72192;52.114;5.424;2023-12-29T07:09:19;100675.25;;;9.61;100.00
81125;BME280;72192;52.114;5.424;2023-12-29T07:11:59;100690.75;;;9.59;100.00
81125;BME280;72192;52.114;5.424;2023-12-29T07:14:41;100685.00;;;9.54;100.00
81125;BME280;72192;52.114;5.424;2023-12-29T07:17:21;100687.84;;;9.53;100.00
81125;BME280;72192;52.114;5.424;2023-12-29T07:20:01;100683.97;;;9.47;100.00
81125;BME280;72192;52.114;5.424;2023-12-29T07:22:41;100684.28;;;9.44;100.00
81125;BME280;72192;52.114;5.424;2023-12-29T07:25:21;100688.81;;;9.43;100.00
81125;BME280;72192;52.114;5.424;2023-12-29T07:28:01;100685.75;;;9.38;100.00
81125;BME280;72192;52.114;5.424;2023-12-29T07:30:41;100686.28;;;9.42;100.00
81125;BME280;72192;52.114;5.424;2023-12-29T07:33:20;100701.13;;;9.46;100.00
81125;BME280;72192;52.114;5.424;2023-12-29T07:36:02;100701.31;;;9.44;100.00
81125;BME280;72192;52.114;5.424;2023-12-29T07:38:42;100707.66;;;9.43;100.00
81125;BME280;72192;52.114;5.424;2023-12-29T07:41:22;100691.50;;;9.43;100.00
81125;BME280;72192;52.114;5.424;2023-12-29T07:44:01;100698.91;;;9.41;100.00
81125;BME280;72192;52.114;5.424;2023-12-29T07:46:41;100708.50;;;9.36;100.00
81125;BME280;72192;52.114;5.424;2023-12-29T07:49:24;100697.88;;;9.34;100.00
81125;BME280;72192;52.114;5.424;2023-12-29T07:52:04;100698.50;;;9.28;100.00
81125;BME280;72192;52.114;5.424;2023-12-29T07:54:46;100681.50;;;9.28;100.00
81125;BME280;72192;52.114;5.424;2023-12-29T07:57:27;100689.19;;;9.23;100.00
81125;BME280;72192;52.114;5.424;2023-12-29T08:00:08;100705.34;;;9.23;100.00
81125;BME280;72192;52.114;5.424;2023-12-29T08:02:48;100716.13;;;9.23;100.00
81125;BME280;72192;52.114;5.424;2023-12-29T08:05:28;100718.81;;;9.23;100.00
81125;BME280;72192;52.114;5.424;2023-12-29T08:08:08;100721.53;;;9.23;100.00
81125;BME280;72192;52.114;5.424;2023-12-29T08:10:48;100715.00;;;9.25;100.00
81125;BME280;72192;52.114;5.424;2023-12-29T08:13:28;100711.66;;;9.31;100.00
81125;BME280;72192;52.114;5.424;2023-12-29T08:16:07;100715.22;;;9.40;100.00
81125;BME280;72192;52.114;5.424;2023-12-29T08:18:49;100711.06;;;9.45;100.00
81125;BME280;72192;52.114;5.424;2023-12-29T08:21:29;100699.13;;;9.48;100.00
81125;BME280;72192;52.114;5.424;2023-12-29T08:24:10;100721.47;;;9.40;100.00
81125;BME280;72192;52.114;5.424;2023-12-29T08:26:50;100724.44;;;9.29;100.00
81125;BME280;72192;52.114;5.424;2023-12-29T08:29:30;100720.50;;;9.24;100.00
81125;BME280;72192;52.114;5.424;2023-12-29T08:32:10;100712.75;;;9.20;100.00
81125;BME280;72192;52.114;5.424;2023-12-29T08:34:50;100726.38;;;9.19;100.00
81125;BME280;72192;52.114;5.424;2023-12-29T08:37:32;100703.50;;;9.23;100.00
81125;BME280;72192;52.114;5.424;2023-12-29T08:40:12;100711.66;;;9.31;100.00
81125;BME280;72192;52.114;5.424;2023-12-29T08:42:52;100721.78;;;9.37;100.00
81125;BME280;72192;52.114;5.424;2023-12-29T08:45:32;100719.25;;;9.36;100.00
81125;BME280;72192;52.114;5.424;2023-12-29T08:48:13;100710.00;;;9.38;100.00
81125;BME280;72192;52.114;5.424;2023-12-29T08:50:53;100716.75;;;9.42;100.00
81125;BME280;72192;52.114;5.424;2023-12-29T08:53:33;100724.38;;;9.47;100.00
81125;BME280;72192;52.114;5.424;2023-12-29T08:56:14;100726.97;;;9.31;100.00
81125;BME280;72192;52.114;5.424;2023-12-29T08:58:54;100723.78;;;9.09;100.00
81125;BME280;72192;52.114;5.424;2023-12-29T09:01:34;100724.91;;;8.99;100.00
81125;BME280;72192;52.114;5.424;2023-12-29T09:04:23;100727.53;;;8.90;100.00
81125;BME280;72192;52.114;5.424;2023-12-29T09:07:03;100716.91;;;8.89;100.00
81125;BME280;72192;52.114;5.424;2023-12-29T09:09:44;100721.13;;;8.91;100.00
81125;BME280;72192;52.114;5.424;2023-12-29T09:12:23;100716.44;;;8.94;100.00
81125;BME280;72192;52.114;5.424;2023-12-29T09:15:04;100716.13;;;8.97;100.00
81125;BME280;72192;52.114;5.424;2023-12-29T09:17:44;100718.50;;;9.00;100.00
81125;BME280;72192;52.114;5.424;2023-12-29T09:20:24;100705.03;;;9.00;100.00
81125;BME280;72192;52.114;5.424;2023-12-29T09:23:04;100718.72;;;9.06;100.00
81125;BME280;72192;52.114;5.424;2023-12-29T09:25:43;100721.31;;;9.16;100.00
81125;BME280;72192;52.114;5.424;2023-12-29T09:28:23;100721.69;;;9.21;100.00
81125;BME280;72192;52.114;5.424;2023-12-29T09:31:03;100733.13;;;9.23;100.00
81125;BME280;72192;52.114;5.424;2023-12-29T09:33:43;100735.22;;;9.29;100.00
81125;BME280;72192;52.114;5.424;2023-12-29T09:36:23;100729.88;;;9.37;100.00
81125;BME280;72192;52.114;5.424;2023-12-29T09:39:03;100747.78;;;9.46;100.00
81125;BME280;72192;52.114;5.424;2023-12-29T09:41:46;100754.09;;;9.55;100.00
81125;BME280;72192;52.114;5.424;2023-12-29T09:44:35;100749.41;;;9.65;100.00
81125;BME280;72192;52.114;5.424;2023-12-29T09:47:24;100752.47;;;9.70;100.00
81125;BME280;72192;52.114;5.424;2023-12-29T09:50:06;100759.94;;;9.76;100.00
81125;BME280;72192;52.114;5.424;2023-12-29T09:52:49;100746.94;;;9.80;100.00
81125;BME280;72192;52.114;5.424;2023-12-29T09:55:31;100740.09;;;9.86;100.00
81125;BME280;72192;52.114;5.424;2023-12-29T09:58:12;100753.06;;;9.90;100.00
81125;BME280;72192;52.114;5.424;2023-12-29T10:00:53;100767.09;;;9.94;100.00
81125;BME280;72192;52.114;5.424;2023-12-29T10:03:33;100750.75;;;9.95;100.00
81125;BME280;72192;52.114;5.424;2023-12-29T10:06:16;100746.19;;;9.96;100.00
81125;BME280;72192;52.114;5.424;2023-12-29T10:09:03;100750.56;;;9.97;100.00
81125;BME280;72192;52.114;5.424;2023-12-29T10:11:45;100730.34;;;10.01;100.00
81125;BME280;72192;52.114;5.424;2023-12-29T10:17:34;100738.84;;;10.14;100.00
81125;BME280;72192;52.114;5.424;2023-12-29T10:20:45;100739.41;;;10.26;100.00
81125;BME280;72192;52.114;5.424;2023-12-29T10:23:52;100753.09;;;10.41;100.00
81125;BME280;72192;52.114;5.424;2023-12-29T10:26:43;100753.63;;;10.44;100.00
81125;BME280;72192;52.114;5.424;2023-12-29T10:29:23;100754.13;;;10.40;100.00
81125;BME280;72192;52.114;5.424;2023-12-29T10:32:05;100753.78;;;10.34;100.00
81125;BME280;72192;52.114;5.424;2023-12-29T10:34:45;100753.09;;;10.32;100.00
81125;BME280;72192;52.114;5.424;2023-12-29T10:37:25;100737.06;;;10.31;100.00
81125;BME280;72192;52.114;5.424;2023-12-29T10:40:07;100747.84;;;10.31;100.00
81125;BME280;72192;52.114;5.424;2023-12-29T10:42:54;100735.91;;;10.33;100.00
81125;BME280;72192;52.114;5.424;2023-12-29T10:45:36;100739.09;;;10.37;100.00
81125;BME280;72192;52.114;5.424;2023-12-29T10:48:22;100761.06;;;10.42;100.00
81125;BME280;72192;52.114;5.424;2023-12-29T10:51:03;100761.06;;;10.42;100.00
81125;BME280;72192;52.114;5.424;2023-12-29T10:53:54;100753.28;;;10.47;100.00
81125;BME280;72192;52.114;5.424;2023-12-29T10:56:38;100762.91;;;10.50;100.00
81125;BME280;72192;52.114;5.424;2023-12-29T10:59:16;100766.16;;;10.53;100.00
81125;BME280;72192;52.114;5.424;2023-12-29T11:02:01;100768.31;;;10.50;100.00
81125;BME280;72192;52.114;5.424;2023-12-29T11:04:42;100773.19;;;10.46;100.00
81125;BME280;72192;52.114;5.424;2023-12-29T11:07:41;100765.28;;;10.45;100.00
81125;BME280;72192;52.114;5.424;2023-12-29T11:10:21;100781.66;;;10.43;100.00
81125;BME280;72192;52.114;5.424;2023-12-29T11:13:01;100773.53;;;10.43;100.00
81125;BME280;72192;52.114;5.424;2023-12-29T11:15:43;100764.25;;;10.46;100.00
81125;BME280;72192;52.114;5.424;2023-12-29T11:18:24;100778.94;;;10.51;100.00
81125;BME280;72192;52.114;5.424;2023-12-29T11:21:06;100778.28;;;10.57;100.00
81125;BME280;72192;52.114;5.424;2023-12-29T11:23:49;100782.03;;;10.65;100.00
81125;BME280;72192;52.114;5.424;2023-12-29T11:26:28;100775.28;;;10.69;100.00
81125;BME280;72192;52.114;5.424;2023-12-29T11:29:13;100786.25;;;10.75;100.00
81125;BME280;72192;52.114;5.424;2023-12-29T11:31:56;100787.59;;;10.79;100.00
81125;BME280;72192;52.114;5.424;2023-12-29T11:34:48;100787.28;;;10.82;99.90
81125;BME280;72192;52.114;5.424;2023-12-29T11:43:57;100799.44;;;10.86;99.56
81125;BME280;72192;52.114;5.424;2023-12-29T11:46:43;100784.41;;;10.84;98.69
81125;BME280;72192;52.114;5.424;2023-12-29T11:49:23;100783.91;;;10.88;98.41
81125;BME280;72192;52.114;5.424;2023-12-29T11:52:03;100777.47;;;10.89;97.99
81125;BME280;72192;52.114;5.424;2023-12-29T11:54:43;100791.00;;;10.89;98.01
81125;BME280;72192;52.114;5.424;2023-12-29T11:57:32;100788.28;;;10.89;97.73
81125;BME280;72192;52.114;5.424;2023-12-29T12:00:15;100789.84;;;10.92;98.45
81125;BME280;72192;52.114;5.424;2023-12-29T12:02:54;100773.44;;;10.94;95.93
81125;BME280;72192;52.114;5.424;2023-12-29T12:05:48;100779.53;;;10.96;96.36
81125;BME280;72192;52.114;5.424;2023-12-29T12:08:35;100773.59;;;11.00;96.58
81125;BME280;72192;52.114;5.424;2023-12-29T12:14:44;100776.84;;;11.04;95.08
81125;BME280;72192;52.114;5.424;2023-12-29T12:17:31;100787.28;;;11.07;94.94
81125;BME280;72192;52.114;5.424;2023-12-29T12:20:15;100778.00;;;11.09;94.50
81125;BME280;72192;52.114;5.424;2023-12-29T12:25:45;100762.13;;;11.14;93.46
81125;BME280;72192;52.114;5.424;2023-12-29T12:28:25;100767.72;;;11.21;94.44
81125;BME280;72192;52.114;5.424;2023-12-29T12:31:05;100764.31;;;11.35;93.90
81125;BME280;72192;52.114;5.424;2023-12-29T12:33:56;100778.00;;;11.34;93.78
81125;BME280;72192;52.114;5.424;2023-12-29T12:36:48;100754.69;;;11.41;94.36
81125;BME280;72192;52.114;5.424;2023-12-29T12:39:41;100759.41;;;11.39;93.90
81125;BME280;72192;52.114;5.424;2023-12-29T12:42:22;100759.44;;;11.31;93.93
81125;BME280;72192;52.114;5.424;2023-12-29T12:45:13;100764.31;;;11.27;95.04
81125;BME280;72192;52.114;5.424;2023-12-29T12:48:02;100753.16;;;11.30;94.13
81125;BME280;72192;52.114;5.424;2023-12-29T12:50:52;100754.19;;;11.21;94.61
81125;BME280;72192;52.114;5.424;2023-12-29T12:53:42;100760.44;;;11.22;95.84
81125;BME280;72192;52.114;5.424;2023-12-29T12:56:22;100760.09;;;11.33;95.23
81125;BME280;72192;52.114;5.424;2023-12-29T12:59:05;100761.09;;;11.40;95.33
81125;BME280;72192;52.114;5.424;2023-12-29T13:01:46;100762.09;;;11.47;94.44
81125;BME280;72192;52.114;5.424;2023-12-29T13:04:26;100753.47;;;11.52;93.28
81125;BME280;72192;52.114;5.424;2023-12-29T13:07:06;100755.00;;;11.38;93.76
81125;BME280;72192;52.114;5.424;2023-12-29T13:09:47;100750.81;;;11.27;94.54
81125;BME280;72192;52.114;5.424;2023-12-29T13:12:29;100759.44;;;11.23;95.04
81125;BME280;72192;52.114;5.424;2023-12-29T13:15:09;100741.53;;;11.22;94.65
81125;BME280;72192;52.114;5.424;2023-12-29T13:17:53;100747.59;;;11.15;94.82
81125;BME280;72192;52.114;5.424;2023-12-29T13:20:46;100749.28;;;11.08;96.13
81125;BME280;72192;52.114;5.424;2023-12-29T13:23:30;100747.78;;;10.98;95.41
81125;BME280;72192;52.114;5.424;2023-12-29T13:26:10;100754.00;;;10.90;95.79
81125;BME280;72192;52.114;5.424;2023-12-29T13:28:50;100760.94;;;10.84;96.22
81125;BME280;72192;52.114;5.424;2023-12-29T13:31:30;100765.31;;;10.77;96.41
81125;BME280;72192;52.114;5.424;2023-12-29T13:34:47;100762.97;;;10.74;96.99
81125;BME280;72192;52.114;5.424;2023-12-29T13:37:47;100752.34;;;10.73;97.12
81125;BME280;72192;52.114;5.424;2023-12-29T13:40:44;100755.88;;;10.73;97.14
81125;BME280;72192;52.114;5.424;2023-12-29T13:43:36;100754.03;;;10.74;97.68
81125;BME280;72192;52.114;5.424;2023-12-29T13:46:22;100729.53;;;10.75;97.49
81125;BME280;72192;52.114;5.424;2023-12-29T13:49:03;100727.03;;;10.74;97.35
81125;BME280;72192;52.114;5.424;2023-12-29T13:51:44;100724.63;;;10.71;97.45
81125;BME280;72192;52.114;5.424;2023-12-29T13:54:24;100712.97;;;10.70;97.72
81125;BME280;72192;52.114;5.424;2023-12-29T13:57:04;100717.53;;;10.70;97.70
81125;BME280;72192;52.114;5.424;2023-12-29T13:59:44;100710.81;;;10.74;97.80
81125;BME280;72192;52.114;5.424;2023-12-29T14:02:31;100700.66;;;10.68;97.59
81125;BME280;72192;52.114;5.424;2023-12-29T14:05:19;100715.19;;;10.58;98.02
81125;BME280;72192;52.114;5.424;2023-12-29T14:10:50;100711.44;;;10.51;98.91
81125;BME280;72192;52.114;5.424;2023-12-29T14:13:30;100722.41;;;10.50;99.64
81125;BME280;72192;52.114;5.424;2023-12-29T14:16:10;100715.34;;;10.49;99.61
81125;BME280;72192;52.114;5.424;2023-12-29T14:18:57;100729.16;;;10.46;99.89
81125;BME280;72192;52.114;5.424;2023-12-29T14:21:38;100730.69;;;10.48;100.00
81125;BME280;72192;52.114;5.424;2023-12-29T14:24:22;100726.31;;;10.47;99.90
81125;BME280;72192;52.114;5.424;2023-12-29T14:27:04;100721.91;;;10.46;100.00
81125;BME280;72192;52.114;5.424;2023-12-29T14:29:49;100719.56;;;10.43;100.00